createdAt,value
2023-06-23T00:00:23.835Z,68.91
2023-06-23T00:01:01.430Z,69.42
2023-06-23T00:01:33.584Z,69.39
2023-06-23T00:02:06.480Z,68.93
2023-06-23T00:02:40.334Z,70.18
2023-06-23T00:03:12.484Z,69.12
2023-06-23T00:03:46.565Z,69.56
2023-06-23T00:04:18.654Z,69.24
2023-06-23T00:04:51.622Z,69.76
2023-06-23T00:05:24.281Z,70.03
2023-06-23T00:05:56.206Z,69.81
2023-06-23T00:06:28.518Z,70.33
2023-06-23T00:07:01.601Z,70.09
2023-06-23T00:07:33.686Z,70.53
2023-06-23T00:08:06.660Z,69.93
2023-06-23T00:08:41.867Z,69.24
2023-06-23T00:09:16.691Z,69.72
2023-06-23T00:09:49.442Z,70.01
2023-06-23T00:10:21.842Z,70.20
2023-06-23T00:10:53.950Z,69.74
2023-06-23T00:11:25.884Z,70.17
2023-06-23T00:11:57.798Z,70.38
2023-06-23T00:12:29.730Z,70.19
2023-06-23T00:13:03.818Z,70.45
2023-06-23T00:13:36.262Z,70.18
2023-06-23T00:14:08.128Z,70.49
2023-06-23T00:14:40.062Z,70.03
2023-06-23T00:15:14.889Z,70.24
2023-06-23T00:15:46.789Z,69.99
2023-06-23T00:16:18.677Z,70.20
2023-06-23T00:16:51.779Z,70.85
2023-06-23T00:17:23.755Z,70.63
2023-06-23T00:17:56.086Z,70.76
2023-06-23T00:18:28.008Z,71.48
2023-06-23T00:18:59.949Z,71.61
2023-06-23T00:19:33.138Z,71.04
2023-06-23T00:20:10.446Z,71.13
2023-06-23T00:20:43.036Z,71.18
2023-06-23T00:21:15.184Z,70.31
2023-06-23T00:21:47.142Z,70.39
2023-06-23T00:22:19.110Z,70.91
2023-06-23T00:22:51.160Z,71.20
2023-06-23T00:23:23.146Z,71.41
2023-06-23T00:23:56.246Z,71.36
2023-06-23T00:24:28.430Z,71.06
2023-06-23T00:25:00.681Z,71.26
2023-06-23T00:25:32.792Z,71.80
2023-06-23T00:26:06.111Z,71.36
2023-06-23T00:26:38.346Z,71.55
2023-06-23T00:27:10.246Z,71.80
2023-06-23T00:27:47.430Z,71.65
2023-06-23T00:28:19.336Z,71.26
2023-06-23T00:28:52.041Z,71.35
2023-06-23T00:29:23.925Z,71.39
2023-06-23T00:29:55.812Z,72.01
2023-06-23T00:30:27.861Z,71.23
2023-06-23T00:30:59.876Z,71.55
2023-06-23T00:31:32.214Z,71.29
2023-06-23T00:32:04.584Z,71.48
2023-06-23T00:32:36.650Z,71.39
2023-06-23T00:33:08.606Z,72.03
2023-06-23T00:33:40.561Z,71.48
2023-06-23T00:34:12.491Z,71.96
2023-06-23T00:34:44.710Z,72.04
2023-06-23T00:35:16.650Z,72.16
2023-06-23T00:35:49.038Z,72.22
2023-06-23T00:36:20.958Z,71.52
2023-06-23T00:36:52.901Z,71.96
2023-06-23T00:37:24.864Z,72.00
2023-06-23T00:37:57.011Z,71.33
2023-06-23T00:38:28.924Z,72.31
2023-06-23T00:39:06.670Z,71.63
2023-06-23T00:39:38.747Z,71.43
2023-06-23T00:40:13.482Z,71.78
2023-06-23T00:40:45.516Z,71.42
2023-06-23T00:41:17.498Z,71.13
2023-06-23T00:41:50.228Z,71.50
2023-06-23T00:42:22.456Z,71.89
2023-06-23T00:42:54.407Z,71.20
2023-06-23T00:43:26.497Z,70.99
2023-06-23T00:44:00.589Z,71.84
2023-06-23T00:44:34.443Z,71.35
2023-06-23T00:45:07.589Z,70.92
2023-06-23T00:45:40.181Z,71.50
2023-06-23T00:46:26.798Z,71.35
2023-06-23T00:46:58.826Z,71.65
2023-06-23T00:47:30.863Z,70.96
2023-06-23T00:48:05.478Z,71.72
2023-06-23T00:48:38.987Z,71.45
2023-06-23T00:49:14.438Z,71.08
2023-06-23T00:49:47.031Z,71.32
2023-06-23T00:50:21.770Z,71.39
2023-06-23T00:50:53.891Z,71.39
2023-06-23T00:51:27.159Z,70.65
2023-06-23T00:52:04.015Z,71.29
2023-06-23T00:52:36.084Z,71.15
2023-06-23T00:53:08.072Z,71.45
2023-06-23T00:53:40.141Z,71.36
2023-06-23T00:54:13.275Z,71.73
2023-06-23T00:54:46.333Z,71.30
2023-06-23T00:55:29.603Z,71.42
2023-06-23T00:56:02.384Z,71.37
2023-06-23T00:56:34.814Z,71.89
2023-06-23T00:57:06.841Z,71.25
2023-06-23T00:57:38.770Z,71.19
2023-06-23T00:58:11.104Z,71.68
2023-06-23T00:58:43.600Z,71.75
2023-06-23T00:59:16.404Z,71.81
2023-06-23T00:59:48.304Z,72.00
2023-06-23T01:00:21.505Z,72.06
2023-06-23T01:00:53.417Z,71.77
2023-06-23T01:01:25.296Z,71.86
2023-06-23T01:02:02.475Z,71.68
2023-06-23T01:02:34.723Z,72.01
2023-06-23T01:03:06.928Z,71.80
2023-06-23T01:03:39.122Z,71.86
2023-06-23T01:04:11.313Z,71.64
2023-06-23T01:04:43.679Z,71.77
2023-06-23T01:05:19.975Z,71.62
2023-06-23T01:05:53.504Z,71.60
2023-06-23T01:06:43.261Z,71.50
2023-06-23T01:07:35.448Z,71.89
2023-06-23T01:08:29.107Z,71.97
2023-06-23T01:09:13.625Z,72.17
2023-06-23T01:09:54.665Z,71.24
2023-06-23T01:10:44.305Z,71.45
2023-06-23T01:11:43.578Z,71.70
2023-06-23T01:12:32.021Z,72.78
2023-06-23T01:13:32.299Z,71.97
2023-06-23T01:14:13.290Z,71.97
2023-06-23T01:14:58.402Z,72.32
2023-06-23T01:15:46.471Z,72.16
2023-06-23T01:16:33.955Z,72.51
2023-06-23T01:17:31.450Z,72.15
2023-06-23T01:18:09.161Z,71.91
2023-06-23T01:19:00.041Z,71.94
2023-06-23T01:19:50.591Z,72.28
2023-06-23T01:20:27.592Z,71.93
2023-06-23T01:21:04.642Z,71.87
2023-06-23T01:21:58.570Z,72.02
2023-06-23T01:23:07.260Z,71.81
2023-06-23T01:24:08.133Z,72.31
2023-06-23T01:24:51.395Z,72.30
2023-06-23T01:25:55.421Z,72.70
2023-06-23T01:26:36.422Z,72.64
2023-06-23T01:27:48.878Z,72.27
2023-06-23T01:28:42.485Z,72.51
2023-06-23T01:29:21.949Z,72.61
2023-06-23T01:29:56.739Z,72.19
2023-06-23T01:30:32.847Z,71.98
2023-06-23T01:31:08.787Z,71.97
2023-06-23T01:32:38.835Z,72.53
2023-06-23T01:33:18.628Z,72.09
2023-06-23T01:33:58.790Z,72.69
2023-06-23T01:34:40.068Z,71.93
2023-06-23T01:35:21.753Z,72.14
2023-06-23T01:36:04.762Z,72.02
2023-06-23T01:36:42.421Z,72.47
2023-06-23T01:37:21.100Z,71.70
2023-06-23T01:38:01.719Z,72.35
2023-06-23T01:38:38.199Z,72.10
2023-06-23T01:39:15.260Z,72.30
2023-06-23T01:39:58.661Z,72.26
2023-06-23T01:40:32.060Z,72.29
2023-06-23T01:41:10.144Z,72.31
2023-06-23T01:41:47.291Z,72.07
2023-06-23T01:42:23.558Z,72.67
2023-06-23T01:43:05.781Z,72.52
2023-06-23T01:43:39.931Z,72.49
2023-06-23T01:44:15.771Z,72.28
2023-06-23T01:44:50.846Z,72.40
2023-06-23T01:45:26.226Z,72.57
2023-06-23T01:46:06.034Z,72.67
2023-06-23T01:46:39.493Z,72.40
2023-06-23T01:47:18.657Z,72.33
2023-06-23T01:47:51.571Z,72.43
2023-06-23T01:48:27.126Z,72.35
2023-06-23T01:49:02.693Z,72.41
2023-06-23T01:49:39.583Z,72.32
2023-06-23T01:50:14.935Z,72.21
2023-06-23T01:50:48.706Z,72.67
2023-06-23T01:51:22.425Z,72.87
2023-06-23T01:51:56.344Z,72.46
2023-06-23T01:52:30.848Z,72.76
2023-06-23T01:53:05.703Z,72.90
2023-06-23T01:53:40.208Z,72.72
2023-06-23T01:54:15.015Z,73.25
2023-06-23T01:54:49.775Z,72.84
2023-06-23T01:55:25.369Z,72.87
2023-06-23T01:56:00.811Z,72.98
2023-06-23T01:56:34.488Z,73.06
2023-06-23T01:57:11.047Z,72.87
2023-06-23T01:57:44.853Z,73.30
2023-06-23T01:58:18.987Z,73.22
2023-06-23T01:58:52.531Z,73.03
2023-06-23T01:59:25.168Z,73.34
2023-06-23T01:59:59.894Z,73.55
2023-06-23T02:00:33.501Z,73.20
2023-06-23T02:01:08.670Z,73.48
2023-06-23T02:01:44.147Z,73.05
2023-06-23T02:02:19.738Z,73.49
2023-06-23T02:02:55.390Z,72.98
2023-06-23T02:03:30.242Z,73.34
2023-06-23T02:04:04.643Z,73.71
2023-06-23T02:04:38.603Z,73.36
2023-06-23T02:05:12.934Z,73.56
2023-06-23T02:05:47.907Z,73.47
2023-06-23T02:06:21.474Z,73.47
2023-06-23T02:06:56.338Z,73.94
2023-06-23T02:07:29.975Z,73.48
2023-06-23T02:08:03.327Z,73.55
2023-06-23T02:08:37.456Z,73.47
2023-06-23T02:09:16.223Z,73.10
2023-06-23T02:09:50.533Z,73.59
2023-06-23T02:10:26.018Z,74.19
2023-06-23T02:11:01.558Z,74.06
2023-06-23T02:11:36.556Z,73.68
2023-06-23T02:12:10.242Z,73.71
2023-06-23T02:12:45.510Z,73.96
2023-06-23T02:13:20.666Z,73.86
2023-06-23T02:13:54.660Z,73.28
2023-06-23T02:14:30.728Z,73.45
2023-06-23T02:15:04.882Z,74.04
2023-06-23T02:15:38.715Z,73.60
2023-06-23T02:16:14.328Z,73.77
2023-06-23T02:16:48.020Z,73.84
2023-06-23T02:17:23.136Z,74.13
2023-06-23T02:17:57.331Z,73.83
2023-06-23T02:18:31.756Z,74.01
2023-06-23T02:19:06.327Z,73.63
2023-06-23T02:19:44.849Z,74.13
2023-06-23T02:20:18.750Z,74.40
2023-06-23T02:20:53.251Z,74.63
2023-06-23T02:21:27.732Z,74.85
2023-06-23T02:22:01.099Z,74.99
2023-06-23T02:22:34.488Z,74.24
2023-06-23T02:23:07.293Z,74.69
2023-06-23T02:23:40.698Z,73.95
2023-06-23T02:24:14.495Z,74.04
2023-06-23T02:24:48.549Z,74.57
2023-06-23T02:25:22.043Z,73.92
2023-06-23T02:25:55.017Z,73.25
2023-06-23T02:26:27.524Z,73.17
2023-06-23T02:26:59.950Z,73.40
2023-06-23T02:27:32.145Z,73.19
2023-06-23T02:28:04.713Z,73.27
2023-06-23T02:28:37.672Z,73.28
2023-06-23T02:29:11.255Z,73.64
2023-06-23T02:29:44.481Z,73.63
2023-06-23T02:30:21.505Z,72.67
2023-06-23T02:30:54.525Z,73.23
2023-06-23T02:31:26.950Z,72.91
2023-06-23T02:31:59.040Z,72.56
2023-06-23T02:32:31.081Z,72.68
2023-06-23T02:33:03.150Z,72.87
2023-06-23T02:33:35.134Z,72.51
2023-06-23T02:34:07.186Z,73.04
2023-06-23T02:34:39.253Z,72.93
2023-06-23T02:35:15.328Z,72.56
2023-06-23T02:35:47.710Z,72.39
2023-06-23T02:36:26.430Z,73.10
2023-06-23T02:37:07.360Z,72.62
2023-06-23T02:37:42.658Z,72.81
2023-06-23T02:38:22.570Z,72.89
2023-06-23T02:38:57.026Z,73.16
2023-06-23T02:39:34.631Z,72.89
2023-06-23T02:40:11.999Z,73.15
2023-06-23T02:40:45.529Z,72.88
2023-06-23T02:41:20.266Z,73.12
2023-06-23T02:41:58.686Z,73.47
2023-06-23T02:42:37.316Z,73.70
2023-06-23T02:43:29.729Z,73.67
2023-06-23T02:44:07.996Z,74.09
2023-06-23T02:44:50.576Z,73.80
2023-06-23T02:45:29.502Z,73.83
2023-06-23T02:46:04.143Z,74.06
2023-06-23T02:46:40.710Z,73.93
2023-06-23T02:47:19.400Z,74.17
2023-06-23T02:47:56.144Z,73.97
2023-06-23T02:48:35.254Z,74.12
2023-06-23T02:49:13.116Z,74.31
2023-06-23T02:49:47.800Z,73.76
2023-06-23T02:50:26.406Z,73.87
2023-06-23T02:51:00.942Z,74.46
2023-06-23T02:51:36.648Z,74.84
2023-06-23T02:52:11.876Z,74.30
2023-06-23T02:52:48.704Z,74.05
2023-06-23T02:53:28.777Z,74.49
2023-06-23T02:54:07.343Z,75.06
2023-06-23T02:54:45.330Z,74.74
2023-06-23T02:55:21.784Z,74.71
2023-06-23T02:56:03.188Z,74.40
2023-06-23T02:56:42.383Z,74.46
2023-06-23T02:57:18.393Z,74.77
2023-06-23T02:57:54.685Z,74.61
2023-06-23T02:58:30.337Z,74.63
2023-06-23T02:59:09.589Z,74.90
2023-06-23T02:59:43.618Z,74.58
2023-06-23T03:00:21.232Z,74.81
2023-06-23T03:00:54.853Z,74.49
2023-06-23T03:01:29.778Z,75.18
2023-06-23T03:02:05.764Z,75.01
2023-06-23T03:02:44.859Z,74.82
2023-06-23T03:03:17.405Z,74.73
2023-06-23T03:03:50.897Z,75.00
2023-06-23T03:04:23.591Z,75.14
2023-06-23T03:04:58.391Z,74.55
2023-06-23T03:05:30.604Z,75.07
2023-06-23T03:06:03.971Z,74.81
2023-06-23T03:06:36.894Z,75.33
2023-06-23T03:07:11.768Z,75.06
2023-06-23T03:07:43.701Z,75.46
2023-06-23T03:08:16.062Z,74.87
2023-06-23T03:08:51.824Z,75.11
2023-06-23T03:09:26.610Z,74.62
2023-06-23T03:09:58.645Z,75.16
2023-06-23T03:10:31.330Z,75.23
2023-06-23T03:11:03.330Z,75.27
2023-06-23T03:11:35.532Z,75.52
2023-06-23T03:12:07.899Z,75.56
2023-06-23T03:12:39.923Z,75.21
2023-06-23T03:13:12.042Z,75.82
2023-06-23T03:13:47.772Z,75.39
2023-06-23T03:14:20.080Z,75.24
2023-06-23T03:14:53.255Z,75.66
2023-06-23T03:15:25.167Z,75.88
2023-06-23T03:16:03.403Z,74.97
2023-06-23T03:16:54.412Z,75.61
2023-06-23T03:17:32.579Z,75.63
2023-06-23T03:18:18.156Z,75.57
2023-06-23T03:19:00.178Z,75.60
2023-06-23T03:19:41.777Z,75.64
2023-06-23T03:20:26.101Z,75.27
2023-06-23T03:21:03.850Z,75.11
2023-06-23T03:21:39.399Z,75.29
2023-06-23T03:22:20.663Z,76.11
2023-06-23T03:23:14.485Z,76.02
2023-06-23T03:23:51.331Z,75.98
2023-06-23T03:24:27.266Z,75.64
2023-06-23T03:25:04.060Z,76.51
2023-06-23T03:25:38.378Z,75.95
2023-06-23T03:26:15.892Z,75.73
2023-06-23T03:26:51.489Z,75.87
2023-06-23T03:27:28.244Z,75.63
2023-06-23T03:28:06.559Z,75.33
2023-06-23T03:28:43.388Z,75.25
2023-06-23T03:29:20.823Z,75.41
2023-06-23T03:30:04.177Z,75.42
2023-06-23T03:30:58.265Z,75.29
2023-06-23T03:31:32.301Z,75.68
2023-06-23T03:32:07.498Z,75.03
2023-06-23T03:32:44.871Z,75.14
2023-06-23T03:33:24.059Z,75.33
2023-06-23T03:33:59.576Z,75.62
2023-06-23T03:34:40.742Z,75.50
2023-06-23T03:35:17.276Z,75.69
2023-06-23T03:35:51.594Z,75.35
2023-06-23T03:36:27.928Z,74.82
2023-06-23T03:37:02.471Z,74.51
2023-06-23T03:37:40.033Z,75.13
2023-06-23T03:38:18.175Z,75.18
2023-06-23T03:39:17.235Z,74.85
2023-06-23T03:39:54.462Z,74.41
2023-06-23T03:40:28.941Z,74.36
2023-06-23T03:41:09.993Z,74.85
2023-06-23T03:41:43.426Z,74.47
2023-06-23T03:42:15.816Z,74.90
2023-06-23T03:43:04.316Z,74.90
2023-06-23T03:43:41.612Z,75.37
2023-06-23T03:44:31.886Z,74.90
2023-06-23T03:45:08.398Z,74.79
2023-06-23T03:45:46.015Z,74.58
2023-06-23T03:46:26.312Z,74.72
2023-06-23T03:47:06.154Z,74.88
2023-06-23T03:47:43.696Z,74.36
2023-06-23T03:48:19.264Z,74.59
2023-06-23T03:48:55.409Z,74.98
2023-06-23T03:49:32.135Z,74.66
2023-06-23T03:50:15.057Z,74.91
2023-06-23T03:50:53.267Z,75.06
2023-06-23T03:51:28.640Z,75.36
2023-06-23T03:52:04.044Z,74.90
2023-06-23T03:52:42.852Z,75.12
2023-06-23T03:53:17.757Z,75.09
2023-06-23T03:53:52.849Z,73.96
2023-06-23T03:54:26.504Z,74.31
2023-06-23T03:55:00.825Z,74.89
2023-06-23T03:55:34.965Z,74.68
2023-06-23T03:56:11.673Z,75.04
2023-06-23T03:56:48.231Z,74.97
2023-06-23T03:57:25.628Z,75.84
2023-06-23T03:58:03.692Z,75.04
2023-06-23T03:58:38.022Z,75.34
2023-06-23T03:59:13.480Z,74.91
2023-06-23T03:59:48.365Z,74.68
2023-06-23T04:00:23.528Z,74.89
2023-06-23T04:00:58.042Z,74.54
2023-06-23T04:01:33.446Z,74.39
2023-06-23T04:02:08.517Z,74.99
2023-06-23T04:02:45.088Z,74.45
2023-06-23T04:03:18.634Z,74.87
2023-06-23T04:03:53.818Z,75.27
2023-06-23T04:04:29.069Z,75.13
2023-06-23T04:05:04.262Z,74.42
2023-06-23T04:05:41.203Z,74.40
2023-06-23T04:06:14.932Z,74.78
2023-06-23T04:06:49.639Z,74.74
2023-06-23T04:07:25.603Z,74.47
2023-06-23T04:08:01.578Z,74.54
2023-06-23T04:08:35.723Z,74.29
2023-06-23T04:09:09.636Z,74.41
2023-06-23T04:09:45.445Z,73.68
2023-06-23T04:10:21.356Z,73.80
2023-06-23T04:10:57.277Z,73.70
2023-06-23T04:11:31.738Z,73.50
2023-06-23T04:12:06.432Z,74.38
2023-06-23T04:12:39.756Z,73.43
2023-06-23T04:13:15.516Z,73.58
2023-06-23T04:13:49.886Z,74.05
2023-06-23T04:14:25.719Z,73.21
2023-06-23T04:15:00.558Z,73.52
2023-06-23T04:15:35.457Z,73.89
2023-06-23T04:16:09.155Z,73.80
2023-06-23T04:16:42.619Z,73.84
2023-06-23T04:17:18.828Z,73.57
2023-06-23T04:17:54.933Z,73.60
2023-06-23T04:18:30.306Z,73.01
2023-06-23T04:19:05.029Z,73.70
2023-06-23T04:19:39.126Z,73.68
2023-06-23T04:20:12.673Z,73.55
2023-06-23T04:20:46.737Z,73.14
2023-06-23T04:21:21.284Z,72.83
2023-06-23T04:21:55.265Z,72.47
2023-06-23T04:22:28.984Z,72.94
2023-06-23T04:23:04.795Z,72.70
2023-06-23T04:23:40.612Z,72.78
2023-06-23T04:24:16.260Z,72.40
2023-06-23T04:24:49.956Z,71.75
2023-06-23T04:25:24.211Z,72.16
2023-06-23T04:25:57.360Z,72.27
2023-06-23T04:26:29.917Z,72.51
2023-06-23T04:27:04.510Z,72.47
2023-06-23T04:27:38.762Z,71.46
2023-06-23T04:28:16.321Z,71.91
2023-06-23T04:28:50.488Z,71.61
2023-06-23T04:29:25.695Z,71.17
2023-06-23T04:30:00.696Z,70.87
2023-06-23T04:30:36.134Z,70.82
2023-06-23T04:31:10.018Z,70.82
2023-06-23T04:31:43.839Z,70.33
2023-06-23T04:32:17.900Z,70.28
2023-06-23T04:32:50.105Z,70.95
2023-06-23T04:33:22.332Z,70.31
2023-06-23T04:33:54.370Z,70.55
2023-06-23T04:34:26.442Z,70.13
2023-06-23T04:34:58.405Z,69.73
2023-06-23T04:35:31.145Z,69.49
2023-06-23T04:36:14.051Z,69.44
2023-06-23T04:37:13.675Z,68.58
2023-06-23T04:37:54.137Z,68.12
2023-06-23T04:38:29.974Z,68.50
2023-06-23T04:39:44.611Z,68.38
2023-06-23T04:40:30.756Z,68.91
2023-06-23T04:41:08.968Z,68.26
2023-06-23T04:41:44.036Z,68.64
2023-06-23T04:42:23.234Z,68.47
2023-06-23T04:43:02.297Z,67.69
2023-06-23T04:43:39.752Z,68.59
2023-06-23T04:44:14.013Z,68.24
2023-06-23T04:44:54.258Z,67.83
2023-06-23T04:45:28.473Z,67.54
2023-06-23T04:46:16.856Z,67.36
2023-06-23T04:46:52.967Z,66.47
2023-06-23T04:47:30.207Z,66.71
2023-06-23T04:48:03.561Z,66.27
2023-06-23T04:48:53.270Z,65.33
2023-06-23T04:49:29.505Z,65.44
2023-06-23T04:50:06.974Z,65.57
2023-06-23T04:50:42.949Z,65.97
2023-06-23T04:51:19.022Z,66.14
2023-06-23T04:51:55.155Z,66.40
2023-06-23T04:52:31.533Z,65.66
2023-06-23T04:53:12.019Z,66.18
2023-06-23T04:53:49.341Z,65.31
2023-06-23T04:54:30.225Z,64.70
2023-06-23T04:55:07.807Z,64.24
2023-06-23T04:55:41.425Z,64.48
2023-06-23T04:56:17.408Z,63.39
2023-06-23T04:57:00.944Z,64.43
2023-06-23T04:57:37.712Z,63.00
2023-06-23T04:58:12.001Z,63.59
2023-06-23T04:58:49.636Z,62.83
2023-06-23T04:59:24.546Z,63.12
2023-06-23T05:00:01.104Z,62.15
2023-06-23T05:00:34.597Z,61.44
2023-06-23T05:01:12.655Z,62.44
2023-06-23T05:01:46.715Z,62.73
2023-06-23T05:02:21.236Z,62.39
2023-06-23T05:02:57.215Z,62.22
2023-06-23T05:03:32.183Z,61.96
2023-06-23T05:04:06.688Z,61.38
2023-06-23T05:04:42.615Z,61.56
2023-06-23T05:05:22.973Z,60.96
2023-06-23T05:05:58.218Z,61.79
2023-06-23T05:06:34.444Z,60.88
2023-06-23T05:07:09.482Z,61.16
2023-06-23T05:07:44.254Z,59.86
2023-06-23T05:08:17.307Z,60.14
2023-06-23T05:08:52.631Z,61.39
2023-06-23T05:09:25.048Z,60.13
2023-06-23T05:10:00.249Z,60.13
2023-06-23T05:10:35.336Z,61.08
2023-06-23T05:11:11.289Z,60.19
2023-06-23T05:11:45.895Z,59.38
2023-06-23T05:12:20.589Z,59.21
2023-06-23T05:12:55.698Z,59.20
2023-06-23T05:13:31.439Z,59.21
2023-06-23T05:14:07.004Z,59.09
2023-06-23T05:14:41.943Z,60.10
2023-06-23T05:15:15.580Z,59.03
2023-06-23T05:15:51.051Z,59.21
2023-06-23T05:16:24.605Z,58.88
2023-06-23T05:17:00.896Z,58.84
2023-06-23T05:17:36.839Z,59.01
2023-06-23T05:18:10.089Z,59.38
2023-06-23T05:18:44.991Z,59.27
2023-06-23T05:19:19.949Z,59.08
2023-06-23T05:19:54.981Z,57.91
2023-06-23T05:20:28.490Z,59.39
2023-06-23T05:21:02.459Z,58.09
2023-06-23T05:21:35.953Z,58.71
2023-06-23T05:22:10.071Z,58.50
2023-06-23T05:22:44.879Z,59.03
2023-06-23T05:23:19.808Z,58.20
2023-06-23T05:23:54.687Z,58.49
2023-06-23T05:24:30.124Z,58.49
2023-06-23T05:25:05.493Z,57.87
2023-06-23T05:25:39.470Z,58.38
2023-06-23T05:26:15.480Z,58.92
2023-06-23T05:26:49.436Z,58.11
2023-06-23T05:27:25.293Z,58.22
2023-06-23T05:28:03.795Z,58.52
2023-06-23T05:28:39.194Z,57.80
2023-06-23T05:29:15.270Z,57.55
2023-06-23T05:29:50.186Z,57.44
2023-06-23T05:30:24.673Z,57.06
2023-06-23T05:30:57.779Z,57.44
2023-06-23T05:31:32.688Z,56.68
2023-06-23T05:32:09.981Z,58.50
2023-06-23T05:32:44.165Z,57.33
2023-06-23T05:33:18.984Z,57.86
2023-06-23T05:33:54.508Z,58.02
2023-06-23T05:34:28.781Z,57.92
2023-06-23T05:35:04.454Z,57.09
2023-06-23T05:35:38.520Z,58.09
2023-06-23T05:36:13.043Z,58.28
2023-06-23T05:36:46.484Z,58.68
2023-06-23T05:37:20.765Z,57.00
2023-06-23T05:37:54.990Z,56.21
2023-06-23T05:38:30.329Z,56.03
2023-06-23T05:39:04.128Z,56.66
2023-06-23T05:39:40.257Z,57.02
2023-06-23T05:40:17.030Z,55.69
2023-06-23T05:40:49.064Z,56.13
2023-06-23T05:41:21.170Z,56.33
2023-06-23T05:41:53.338Z,56.71
2023-06-23T05:42:25.461Z,56.30
2023-06-23T05:42:57.568Z,56.08
2023-06-23T05:43:29.649Z,56.37
2023-06-23T05:44:02.217Z,56.90
2023-06-23T05:44:34.767Z,57.05
2023-06-23T05:45:07.618Z,57.55
2023-06-23T05:45:39.839Z,56.47
2023-06-23T05:46:17.383Z,55.48
2023-06-23T05:46:54.479Z,56.03
2023-06-23T05:47:33.131Z,54.93
2023-06-23T05:48:39.484Z,54.59
2023-06-23T05:49:17.027Z,53.99
2023-06-23T05:49:54.499Z,54.80
2023-06-23T05:50:33.798Z,55.20
2023-06-23T05:51:12.327Z,53.94
2023-06-23T05:51:48.885Z,54.65
2023-06-23T05:52:23.118Z,54.32
2023-06-23T05:53:16.782Z,54.30
2023-06-23T05:53:55.718Z,54.65
2023-06-23T05:54:30.907Z,55.11
2023-06-23T05:55:06.931Z,53.99
2023-06-23T05:55:44.698Z,53.21
2023-06-23T05:56:25.187Z,53.00
2023-06-23T05:57:34.806Z,53.05
2023-06-23T05:58:11.028Z,53.28
2023-06-23T05:58:47.409Z,54.00
2023-06-23T05:59:43.068Z,53.11
2023-06-23T06:00:18.647Z,53.78
2023-06-23T06:00:56.154Z,54.56
2023-06-23T06:01:32.069Z,54.29
2023-06-23T06:02:06.610Z,53.95
2023-06-23T06:02:52.405Z,54.20
2023-06-23T06:03:30.926Z,53.80
2023-06-23T06:04:09.980Z,53.79
2023-06-23T06:04:47.061Z,53.33
2023-06-23T06:05:23.149Z,53.84
2023-06-23T06:05:57.874Z,54.32
2023-06-23T06:06:31.109Z,53.46
2023-06-23T06:07:04.409Z,53.86
2023-06-23T06:07:38.330Z,54.18
2023-06-23T06:08:11.574Z,54.65
2023-06-23T06:08:45.716Z,53.22
2023-06-23T06:09:20.206Z,53.54
2023-06-23T06:09:54.202Z,54.12
2023-06-23T06:10:28.810Z,52.96
2023-06-23T06:11:03.414Z,52.97
2023-06-23T06:11:38.727Z,52.99
2023-06-23T06:12:13.419Z,52.52
2023-06-23T06:12:50.266Z,53.16
2023-06-23T06:13:25.654Z,53.52
2023-06-23T06:13:59.792Z,52.44
2023-06-23T06:14:35.633Z,52.17
2023-06-23T06:15:09.364Z,51.47
2023-06-23T06:15:44.307Z,52.02
2023-06-23T06:16:18.549Z,51.24
2023-06-23T06:16:52.911Z,51.46
2023-06-23T06:17:27.793Z,52.13
2023-06-23T06:18:08.359Z,50.99
2023-06-23T06:18:44.574Z,52.31
2023-06-23T06:19:21.813Z,52.63
2023-06-23T06:19:57.503Z,51.67
2023-06-23T06:20:32.715Z,51.72
2023-06-23T06:21:08.461Z,52.16
2023-06-23T06:21:42.424Z,54.36
2023-06-23T06:22:15.887Z,53.88
2023-06-23T06:22:53.543Z,52.66
2023-06-23T06:23:31.964Z,53.23
2023-06-23T06:24:06.237Z,52.59
2023-06-23T06:24:41.403Z,52.16
2023-06-23T06:25:15.765Z,53.55
2023-06-23T06:25:50.574Z,53.79
2023-06-23T06:26:23.485Z,54.07
2023-06-23T06:26:58.279Z,53.27
2023-06-23T06:27:33.761Z,53.85
2023-06-23T06:28:12.177Z,54.05
2023-06-23T06:28:45.984Z,53.34
2023-06-23T06:29:19.895Z,54.36
2023-06-23T06:29:56.538Z,52.98
2023-06-23T06:30:29.759Z,53.02
2023-06-23T06:31:04.560Z,53.54
2023-06-23T06:31:38.845Z,52.59
2023-06-23T06:32:11.642Z,52.40
2023-06-23T06:32:44.361Z,52.45
2023-06-23T06:33:18.833Z,53.36
2023-06-23T06:33:53.968Z,52.51
2023-06-23T06:34:28.035Z,52.42
2023-06-23T06:35:06.626Z,51.97
2023-06-23T06:35:41.436Z,51.97
2023-06-23T06:36:16.139Z,51.90
2023-06-23T06:36:49.305Z,52.02
2023-06-23T06:37:25.360Z,50.85
2023-06-23T06:37:59.544Z,51.93
2023-06-23T06:38:38.489Z,51.97
2023-06-23T06:39:13.173Z,49.99
2023-06-23T06:39:46.574Z,50.53
2023-06-23T06:40:24.518Z,50.60
2023-06-23T06:40:58.482Z,51.08
2023-06-23T06:41:32.956Z,50.09
2023-06-23T06:42:05.416Z,50.34
2023-06-23T06:42:38.053Z,49.93
2023-06-23T06:43:10.588Z,50.06
2023-06-23T06:43:42.577Z,51.36
2023-06-23T06:44:14.720Z,50.24
2023-06-23T06:44:46.683Z,50.77
2023-06-23T06:45:19.540Z,48.99
2023-06-23T06:45:52.467Z,49.12
2023-06-23T06:46:27.893Z,48.98
2023-06-23T06:47:03.717Z,49.54
2023-06-23T06:47:41.877Z,49.15
2023-06-23T06:48:14.731Z,49.63
2023-06-23T06:48:48.430Z,49.16
2023-06-23T06:49:24.308Z,49.26
2023-06-23T06:49:59.363Z,50.07
2023-06-23T06:50:34.108Z,50.84
2023-06-23T06:51:07.715Z,50.98
2023-06-23T06:51:43.006Z,51.50
2023-06-23T06:52:17.578Z,52.31
2023-06-23T06:52:50.356Z,51.89
2023-06-23T06:53:55.854Z,52.91
2023-06-23T06:54:27.880Z,51.70
2023-06-23T06:54:59.923Z,50.91
2023-06-23T06:55:33.117Z,53.13
2023-06-23T06:56:06.852Z,51.27
2023-06-23T06:56:40.492Z,53.22
2023-06-23T06:57:12.965Z,52.58
2023-06-23T06:57:49.119Z,52.55
2023-06-23T06:58:21.801Z,52.08
2023-06-23T06:58:54.393Z,51.29
2023-06-23T06:59:26.604Z,50.87
2023-06-23T06:59:58.627Z,50.50
2023-06-23T07:00:31.671Z,51.63
2023-06-23T07:01:04.986Z,51.03
2023-06-23T07:01:39.360Z,51.07
2023-06-23T07:02:13.588Z,50.56
2023-06-23T07:02:46.850Z,49.92
2023-06-23T07:03:19.761Z,50.45
2023-06-23T07:03:53.396Z,50.59
2023-06-23T07:04:27.736Z,49.96
2023-06-23T07:05:02.646Z,49.49
2023-06-23T07:05:34.924Z,50.07
2023-06-23T07:06:07.566Z,50.09
2023-06-23T07:06:41.418Z,50.01
2023-06-23T07:07:16.415Z,49.34
2023-06-23T07:07:48.340Z,48.51
2023-06-23T07:08:21.044Z,49.88
2023-06-23T07:08:53.027Z,49.46
2023-06-23T07:09:24.953Z,49.38
2023-06-23T07:09:56.860Z,48.67
2023-06-23T07:10:29.195Z,47.77
2023-06-23T07:11:01.400Z,48.07
2023-06-23T07:11:33.486Z,48.83
2023-06-23T07:12:07.771Z,48.67
2023-06-23T07:12:40.356Z,48.13
2023-06-23T07:13:12.350Z,48.49
2023-06-23T07:13:44.737Z,48.78
2023-06-23T07:14:17.114Z,48.18
2023-06-23T07:14:49.029Z,48.54
2023-06-23T07:15:21.085Z,48.07
2023-06-23T07:15:53.530Z,47.99
2023-06-23T07:16:31.635Z,48.26
2023-06-23T07:17:04.324Z,50.06
2023-06-23T07:17:38.376Z,48.82
2023-06-23T07:18:12.254Z,47.19
2023-06-23T07:18:44.237Z,47.24
2023-06-23T07:19:16.244Z,47.07
2023-06-23T07:19:48.148Z,47.75
2023-06-23T07:20:20.607Z,46.48
2023-06-23T07:20:52.593Z,46.99
2023-06-23T07:21:24.612Z,48.49
2023-06-23T07:21:56.588Z,46.87
2023-06-23T07:22:28.562Z,46.01
2023-06-23T07:23:00.461Z,47.09
2023-06-23T07:23:32.633Z,47.08
2023-06-23T07:24:04.770Z,46.08
2023-06-23T07:24:36.793Z,45.90
2023-06-23T07:25:09.291Z,45.38
2023-06-23T07:25:41.309Z,45.10
2023-06-23T07:26:13.298Z,45.76
2023-06-23T07:26:45.171Z,45.66
2023-06-23T07:27:17.360Z,44.52
2023-06-23T07:27:50.123Z,47.11
2023-06-23T07:28:22.208Z,46.17
2023-06-23T07:28:54.515Z,46.13
2023-06-23T07:29:26.470Z,45.66
2023-06-23T07:29:59.889Z,45.19
2023-06-23T07:30:32.237Z,45.15
2023-06-23T07:31:04.710Z,45.53
2023-06-23T07:31:38.787Z,46.23
2023-06-23T07:32:11.673Z,44.48
2023-06-23T07:32:49.800Z,45.45
2023-06-23T07:33:21.953Z,45.07
2023-06-23T07:33:54.062Z,43.88
2023-06-23T07:34:26.399Z,44.81
2023-06-23T07:34:58.532Z,44.16
2023-06-23T07:35:30.488Z,45.54
2023-06-23T07:36:02.469Z,43.83
2023-06-23T07:36:34.407Z,42.81
2023-06-23T07:37:06.620Z,43.79
2023-06-23T07:37:39.607Z,44.47
2023-06-23T07:38:11.758Z,43.50
2023-06-23T07:38:43.919Z,44.60
2023-06-23T07:39:15.819Z,44.20
2023-06-23T07:39:47.823Z,43.38
2023-06-23T07:40:19.746Z,45.00
2023-06-23T07:40:51.815Z,43.72
2023-06-23T07:41:23.758Z,42.58
2023-06-23T07:41:55.722Z,43.13